Time;durP1;ratioP1;P1;durP2;ratioP2;P2;SDS_P1;SDS_P2;PMS_P1;PMS_P2;Temp;Humidity;BMP_temperature;BMP_pressure;BME280_temperature;BME280_humidity;BME280_pressure;Samples;Min_cycle;Max_cycle;Signal;HPM_P1;HPM_P2
2022/02/24 00:02:10;;;;;;;6.78;1.95;;;;;;;;;;5093862;28;20024;-37
2022/02/24 00:04:37;;;;;;;8.35;1.70;;;;;;;;;;5092586;28;20036;-37
2022/02/24 00:07:04;;;;;;;9.45;1.98;;;;;;;;;;5096414;28;20051;-37
2022/02/24 00:09:31;;;;;;;6.53;1.80;;;;;;;;;;5104438;28;20028;-37
2022/02/24 00:12:02;;;;;;;6.63;1.73;;;;;;;;;;5101809;28;20033;-37
2022/02/24 00:14:29;;;;;;;11.13;2.20;;;;;;;;;;5094657;28;20031;-37
2022/02/24 00:16:56;;;;;;;10.93;1.60;;;;;;;;;;5109152;28;20038;-37
2022/02/24 00:19:23;;;;;;;12.93;1.80;;;;;;;;;;5112788;28;20044;-37
2022/02/24 00:21:50;;;;;;;12.15;2.28;;;;;;;;;;5099305;28;20432;-38
2022/02/24 00:24:17;;;;;;;11.40;1.88;;;;;;;;;;5097890;28;20102;-38
2022/02/24 00:26:44;;;;;;;5.22;1.75;;;;;;;;;;5100230;28;20755;-38
2022/02/24 00:29:11;;;;;;;6.72;1.80;;;;;;;;;;5100742;28;20055;-38
2022/02/24 00:31:38;;;;;;;14.90;1.90;;;;;;;;;;5102627;28;20028;-38
2022/02/24 00:34:05;;;;;;;19.25;2.33;;;;;;;;;;5095444;28;20055;-37
2022/02/24 00:36:32;;;;;;;10.38;2.10;;;;;;;;;;5102282;28;20743;-36
2022/02/24 00:38:59;;;;;;;17.60;2.17;;;;;;;;;;5102331;28;20471;-36
2022/02/24 00:41:26;;;;;;;20.55;2.72;;;;;;;;;;5100920;28;20028;-37
2022/02/24 00:43:53;;;;;;;23.70;3.15;;;;;;;;;;5101831;28;20043;-38
2022/02/24 00:46:20;;;;;;;18.88;3.20;;;;;;;;;;5102769;28;20020;-40
2022/02/24 00:48:47;;;;;;;19.02;3.22;;;;;;;;;;5098511;28;20531;-39
2022/02/24 00:51:14;;;;;;;33.05;3.90;;;;;;;;;;5098585;28;20032;-37
2022/02/24 00:53:41;;;;;;;49.95;4.93;;;;;;;;;;5099436;28;20026;-37
2022/02/24 00:56:09;;;;;;;54.03;4.38;;;;;;;;;;5099490;28;20085;-37
2022/02/24 00:58:35;;;;;;;54.15;4.97;;;;;;;;;;5098517;28;20473;-38
2022/02/24 01:01:03;;;;;;;52.70;4.95;;;;;;;;;;5099232;28;20386;-37
2022/02/24 01:03:30;;;;;;;70.55;6.32;;;;;;;;;;5098808;28;20032;-38
2022/02/24 01:05:57;;;;;;;57.85;5.80;;;;;;;;;;5094289;28;20162;-38
2022/02/24 01:08:24;;;;;;;54.05;6.40;;;;;;;;;;5092603;28;20050;-37
2022/02/24 01:10:51;;;;;;;57.92;6.13;;;;;;;;;;5092552;28;20095;-37
2022/02/24 01:13:18;;;;;;;44.03;6.60;;;;;;;;;;5092483;28;20099;-37
2022/02/24 01:15:46;;;;;;;45.35;6.20;;;;;;;;;;5092607;28;20100;-37
2022/02/24 01:18:12;;;;;;;42.45;6.07;;;;;;;;;;5092395;28;20055;-38
2022/02/24 01:20:39;;;;;;;49.28;10.15;;;;;;;;;;5092134;28;20028;-38
2022/02/24 01:23:06;;;;;;;87.38;17.88;;;;;;;;;;5092527;28;20024;-38
2022/02/24 01:25:34;;;;;;;108.88;19.92;;;;;;;;;;5092327;28;20028;-38
2022/02/24 01:28:01;;;;;;;89.50;19.55;;;;;;;;;;5091369;28;20104;-37
2022/02/24 01:30:29;;;;;;;89.28;17.45;;;;;;;;;;5091243;28;20036;-38
2022/02/24 01:32:57;;;;;;;82.20;17.58;;;;;;;;;;5091734;28;20028;-38
2022/02/24 01:35:24;;;;;;;86.65;19.42;;;;;;;;;;5091284;28;20470;-38
2022/02/24 01:37:51;;;;;;;74.93;17.17;;;;;;;;;;5091660;28;20043;-38
2022/02/24 01:40:18;;;;;;;75.32;17.27;;;;;;;;;;5091269;28;20032;-38
2022/02/24 01:42:46;;;;;;;72.28;16.20;;;;;;;;;;5091537;28;20027;-38
2022/02/24 01:45:13;;;;;;;54.80;14.43;;;;;;;;;;5092492;28;20035;-39
2022/02/24 01:47:41;;;;;;;69.22;15.68;;;;;;;;;;5112004;28;20110;-38
2022/02/24 01:50:09;;;;;;;63.83;14.52;;;;;;;;;;5111260;28;20039;-37
2022/02/24 01:52:36;;;;;;;55.25;13.40;;;;;;;;;;5100110;28;20385;-38
2022/02/24 01:55:04;;;;;;;55.75;14.77;;;;;;;;;;5099976;28;20130;-37
2022/02/24 01:57:31;;;;;;;51.75;12.50;;;;;;;;;;5083413;28;20040;-38
2022/02/24 01:59:58;;;;;;;51.83;12.32;;;;;;;;;;5097700;28;20046;-38
2022/02/24 02:02:25;;;;;;;47.05;11.70;;;;;;;;;;5090476;28;20020;-38
2022/02/24 02:04:53;;;;;;;41.08;10.60;;;;;;;;;;5091091;28;20745;-37
2022/02/24 02:07:22;;;;;;;48.85;11.60;;;;;;;;;;5093010;28;20023;-37
2022/02/24 02:09:49;;;;;;;36.15;9.43;;;;;;;;;;5099994;28;20116;-37
2022/02/24 02:12:19;;;;;;;53.85;11.70;;;;;;;;;;5097556;28;20024;-35
2022/02/24 02:14:46;;;;;;;47.00;11.50;;;;;;;;;;5099474;28;20032;-37
2022/02/24 02:17:13;;;;;;;42.00;10.90;;;;;;;;;;5099545;28;20051;-34
2022/02/24 02:19:40;;;;;;;39.53;10.20;;;;;;;;;;5101546;28;20024;-37
2022/02/24 02:22:08;;;;;;;40.00;9.52;;;;;;;;;;5099811;28;20054;-38
2022/02/24 02:24:34;;;;;;;41.35;9.93;;;;;;;;;;5101336;28;20028;-38
2022/02/24 02:27:02;;;;;;;36.55;9.93;;;;;;;;;;5101601;28;20028;-38
2022/02/24 02:29:29;;;;;;;40.00;9.85;;;;;;;;;;5099650;28;20561;-38
2022/02/24 02:31:56;;;;;;;32.47;8.43;;;;;;;;;;5100502;28;20077;-36
2022/02/24 02:34:23;;;;;;;34.20;8.35;;;;;;;;;;5102364;28;20024;-37
2022/02/24 02:36:50;;;;;;;32.78;7.50;;;;;;;;;;5100397;28;20034;-38
2022/02/24 02:39:17;;;;;;;31.08;8.02;;;;;;;;;;5082842;28;20043;-38
2022/02/24 02:41:47;;;;;;;29.02;7.35;;;;;;;;;;5103291;28;20051;-38
2022/02/24 02:44:15;;;;;;;25.48;7.35;;;;;;;;;;5104887;28;20114;-38
2022/02/24 02:46:42;;;;;;;28.67;6.85;;;;;;;;;;5105696;28;20024;-37
2022/02/24 02:49:09;;;;;;;29.70;7.57;;;;;;;;;;5112007;28;20031;-37
2022/02/24 02:51:35;;;;;;;23.75;6.50;;;;;;;;;;5096646;28;20032;-35
2022/02/24 02:54:03;;;;;;;30.88;6.80;;;;;;;;;;5094638;28;20043;-36
2022/02/24 02:56:30;;;;;;;27.20;6.97;;;;;;;;;;5095282;28;20020;-35
2022/02/24 02:58:57;;;;;;;24.83;6.30;;;;;;;;;;5094663;28;20028;-37
2022/02/24 03:01:24;;;;;;;23.35;6.53;;;;;;;;;;5076814;28;20024;-37
2022/02/24 03:03:51;;;;;;;19.88;6.07;;;;;;;;;;5094720;28;20178;-35
2022/02/24 03:06:18;;;;;;;19.20;5.32;;;;;;;;;;5095239;28;20478;-36
2022/02/24 03:08:45;;;;;;;19.38;5.60;;;;;;;;;;5094598;28;20032;-35
2022/02/24 03:11:12;;;;;;;23.60;6.50;;;;;;;;;;5094854;28;20019;-35
2022/02/24 03:13:39;;;;;;;20.27;5.40;;;;;;;;;;5095052;28;20520;-36
2022/02/24 03:16:06;;;;;;;17.65;5.00;;;;;;;;;;5094574;28;20448;-37
2022/02/24 03:18:33;;;;;;;24.88;5.47;;;;;;;;;;5094727;28;20481;-35
2022/02/24 03:21:00;;;;;;;17.02;4.90;;;;;;;;;;5094323;28;20500;-35
2022/02/24 03:23:27;;;;;;;19.55;5.45;;;;;;;;;;5094768;28;20024;-35
2022/02/24 03:25:54;;;;;;;20.85;5.88;;;;;;;;;;5094421;28;20016;-35
2022/02/24 03:28:21;;;;;;;17.83;4.70;;;;;;;;;;5094512;28;20048;-36
2022/02/24 03:30:48;;;;;;;20.17;5.28;;;;;;;;;;5093854;28;20036;-36
2022/02/24 03:33:16;;;;;;;18.90;4.47;;;;;;;;;;5094611;28;20031;-36
2022/02/24 03:35:43;;;;;;;19.60;4.80;;;;;;;;;;5094248;28;20027;-37
2022/02/24 03:38:10;;;;;;;11.60;4.05;;;;;;;;;;5094618;28;20028;-36
2022/02/24 03:40:37;;;;;;;14.75;4.30;;;;;;;;;;5093957;28;20103;-34
2022/02/24 03:43:04;;;;;;;15.32;4.55;;;;;;;;;;5094706;28;20023;-34
2022/02/24 03:45:31;;;;;;;14.30;4.40;;;;;;;;;;5094350;28;20447;-36
2022/02/24 03:47:58;;;;;;;12.57;3.67;;;;;;;;;;5093952;28;20027;-36
2022/02/24 03:50:26;;;;;;;12.23;3.80;;;;;;;;;;5093998;28;20043;-36
2022/02/24 03:52:53;;;;;;;10.07;3.40;;;;;;;;;;5093734;28;20028;-34
2022/02/24 03:55:21;;;;;;;11.98;3.67;;;;;;;;;;5094226;28;20024;-36
2022/02/24 03:57:48;;;;;;;13.23;3.63;;;;;;;;;;5093679;28;20067;-38
2022/02/24 04:00:15;;;;;;;9.90;3.17;;;;;;;;;;5094096;28;20460;-34
2022/02/24 04:02:42;;;;;;;10.10;3.53;;;;;;;;;;5093507;28;20024;-34
2022/02/24 04:05:13;;;;;;;11.30;3.30;;;;;;;;;;5094195;28;20020;-33
2022/02/24 04:07:40;;;;;;;8.93;2.70;;;;;;;;;;5093360;28;20116;-37
2022/02/24 04:10:07;;;;;;;8.02;2.70;;;;;;;;;;5094066;28;20036;-37
2022/02/24 04:12:34;;;;;;;9.30;3.28;;;;;;;;;;5075047;28;20107;-36
2022/02/24 04:15:02;;;;;;;9.75;2.75;;;;;;;;;;5094048;28;20024;-37
2022/02/24 04:17:29;;;;;;;8.40;2.75;;;;;;;;;;5093636;28;20469;-38
2022/02/24 04:19:56;;;;;;;6.72;2.20;;;;;;;;;;5093443;28;20032;-37
2022/02/24 04:22:23;;;;;;;8.30;2.50;;;;;;;;;;5093647;28;20030;-37
2022/02/24 04:24:50;;;;;;;10.52;2.97;;;;;;;;;;5093370;28;20073;-37
2022/02/24 04:27:17;;;;;;;7.38;2.78;;;;;;;;;;5093476;28;20024;-36
2022/02/24 04:29:44;;;;;;;9.32;3.22;;;;;;;;;;5093210;28;20047;-37
2022/02/24 04:32:11;;;;;;;7.90;2.35;;;;;;;;;;5093456;28;20063;-36
2022/02/24 04:34:38;;;;;;;7.43;2.30;;;;;;;;;;5093182;28;20028;-34
2022/02/24 04:37:05;;;;;;;10.02;2.45;;;;;;;;;;5075309;28;20437;-36
2022/02/24 04:39:32;;;;;;;8.02;2.33;;;;;;;;;;5092903;28;20028;-35
2022/02/24 04:41:59;;;;;;;7.55;2.13;;;;;;;;;;5093364;28;20048;-38
2022/02/24 04:44:26;;;;;;;6.72;2.17;;;;;;;;;;5093414;28;21108;-34
2022/02/24 04:46:53;;;;;;;6.40;2.22;;;;;;;;;;5092685;28;20048;-37
2022/02/24 04:49:20;;;;;;;8.23;2.25;;;;;;;;;;5093103;28;20039;-36
2022/02/24 04:51:47;;;;;;;6.10;2.10;;;;;;;;;;5092573;28;20055;-35
2022/02/24 04:54:14;;;;;;;5.65;1.50;;;;;;;;;;5093116;28;20089;-35
2022/02/24 04:56:41;;;;;;;6.35;2.10;;;;;;;;;;5092661;28;20044;-36
2022/02/24 04:59:08;;;;;;;5.13;2.05;;;;;;;;;;5093105;28;20519;-34
2022/02/24 05:01:35;;;;;;;5.97;1.95;;;;;;;;;;5091875;28;20081;-36
2022/02/24 05:04:02;;;;;;;7.65;2.55;;;;;;;;;;5092773;28;20065;-36
2022/02/24 05:06:29;;;;;;;5.47;1.88;;;;;;;;;;5092545;28;20027;-36
2022/02/24 05:08:56;;;;;;;7.97;1.85;;;;;;;;;;5092633;28;20039;-36
2022/02/24 05:11:23;;;;;;;5.50;1.67;;;;;;;;;;5092262;28;20472;-35
2022/02/24 05:13:50;;;;;;;5.28;1.48;;;;;;;;;;5092735;28;20028;-36
2022/02/24 05:16:17;;;;;;;4.75;1.85;;;;;;;;;;5092407;28;20024;-36
2022/02/24 05:18:44;;;;;;;3.03;1.40;;;;;;;;;;5092670;28;20031;-36
2022/02/24 05:21:11;;;;;;;3.88;1.63;;;;;;;;;;5092341;28;20031;-36
2022/02/24 05:23:40;;;;;;;5.88;1.63;;;;;;;;;;5092351;28;20850;-36
2022/02/24 05:26:07;;;;;;;4.00;1.65;;;;;;;;;;5092489;28;20036;-36
2022/02/24 05:28:34;;;;;;;4.07;1.50;;;;;;;;;;5091843;28;20058;-35
2022/02/24 05:31:01;;;;;;;3.38;1.30;;;;;;;;;;5092623;28;20061;-36
2022/02/24 05:33:29;;;;;;;5.85;1.55;;;;;;;;;;5091675;28;20022;-36
2022/02/24 05:35:56;;;;;;;5.15;1.65;;;;;;;;;;5092429;28;20071;-37
2022/02/24 05:38:23;;;;;;;4.13;1.52;;;;;;;;;;5091816;28;20028;-38
2022/02/24 05:40:51;;;;;;;5.50;1.50;;;;;;;;;;5092387;28;20020;-36
2022/02/24 05:43:18;;;;;;;2.83;1.27;;;;;;;;;;5091377;28;20039;-35
2022/02/24 05:45:45;;;;;;;4.43;1.30;;;;;;;;;;5092322;28;20115;-36
2022/02/24 05:48:12;;;;;;;2.22;1.10;;;;;;;;;;5091736;28;20035;-36
2022/02/24 05:50:39;;;;;;;4.38;1.45;;;;;;;;;;5092323;28;20528;-35
2022/02/24 05:53:06;;;;;;;3.20;1.20;;;;;;;;;;5091612;28;20474;-38
2022/02/24 05:55:34;;;;;;;3.05;1.40;;;;;;;;;;5092161;28;20032;-36
2022/02/24 05:58:01;;;;;;;2.15;1.10;;;;;;;;;;5091475;28;20035;-36
2022/02/24 06:00:29;;;;;;;1.75;0.98;;;;;;;;;;5092275;28;20477;-36
2022/02/24 06:02:56;;;;;;;3.15;0.95;;;;;;;;;;5091930;28;20020;-36
2022/02/24 06:05:23;;;;;;;2.22;0.90;;;;;;;;;;5091456;28;20024;-36
2022/02/24 06:07:50;;;;;;;4.47;0.98;;;;;;;;;;5091847;28;20040;-35
2022/02/24 06:10:17;;;;;;;2.65;1.25;;;;;;;;;;5091445;28;20038;-35
2022/02/24 06:12:44;;;;;;;3.13;1.02;;;;;;;;;;5091730;28;20024;-37
2022/02/24 06:15:12;;;;;;;2.53;1.20;;;;;;;;;;5091103;28;20036;-35
2022/02/24 06:17:39;;;;;;;3.28;1.15;;;;;;;;;;5091689;28;20371;-37
2022/02/24 06:20:07;;;;;;;5.25;1.15;;;;;;;;;;5091253;28;20478;-36
2022/02/24 06:22:34;;;;;;;2.03;1.00;;;;;;;;;;5091753;28;20535;-34
2022/02/24 06:25:01;;;;;;;2.55;1.00;;;;;;;;;;5091098;28;20016;-36
2022/02/24 06:27:28;;;;;;;2.83;0.85;;;;;;;;;;5091138;28;20032;-34
2022/02/24 06:29:56;;;;;;;3.25;1.00;;;;;;;;;;5091133;28;20028;-35
2022/02/24 06:32:23;;;;;;;3.97;1.23;;;;;;;;;;5091604;28;20035;-34
2022/02/24 06:34:51;;;;;;;2.20;0.80;;;;;;;;;;5091086;28;20495;-36
2022/02/24 06:37:18;;;;;;;5.00;1.25;;;;;;;;;;5091406;28;20044;-34
2022/02/24 06:39:45;;;;;;;1.35;0.75;;;;;;;;;;5091251;28;20025;-34
2022/02/24 06:42:12;;;;;;;1.55;0.70;;;;;;;;;;5091680;28;20054;-37
2022/02/24 06:44:40;;;;;;;2.00;0.90;;;;;;;;;;5091448;28;20154;-36
2022/02/24 06:47:07;;;;;;;2.28;0.80;;;;;;;;;;5090824;28;20039;-37
2022/02/24 06:49:34;;;;;;;1.05;0.70;;;;;;;;;;5091486;28;20036;-38
2022/02/24 06:52:01;;;;;;;1.42;0.98;;;;;;;;;;5091073;28;20031;-36
2022/02/24 06:54:28;;;;;;;2.45;0.80;;;;;;;;;;5091399;28;20490;-34
2022/02/24 06:56:55;;;;;;;2.05;0.65;;;;;;;;;;5090922;28;20032;-36
2022/02/24 06:59:22;;;;;;;1.75;0.85;;;;;;;;;;5091260;28;20393;-36
2022/02/24 07:01:49;;;;;;;1.75;0.80;;;;;;;;;;5091031;28;20032;-33
2022/02/24 07:04:16;;;;;;;1.73;0.70;;;;;;;;;;5091317;28;20785;-33
2022/02/24 07:06:44;;;;;;;1.52;1.00;;;;;;;;;;5090902;28;20401;-33
2022/02/24 07:09:11;;;;;;;1.00;0.50;;;;;;;;;;5073276;28;20063;-35
2022/02/24 07:11:38;;;;;;;2.55;0.77;;;;;;;;;;5090888;28;20377;-37
2022/02/24 07:14:05;;;;;;;0.80;0.60;;;;;;;;;;5091193;28;20078;-36
2022/02/24 07:16:33;;;;;;;1.92;0.80;;;;;;;;;;5090776;28;20020;-33
2022/02/24 07:19:01;;;;;;;2.53;0.85;;;;;;;;;;5091151;28;20062;-38
2022/02/24 07:21:28;;;;;;;2.00;0.82;;;;;;;;;;5091163;28;20099;-38
2022/02/24 07:23:55;;;;;;;1.92;0.75;;;;;;;;;;5090875;28;20024;-35
2022/02/24 07:26:22;;;;;;;1.90;0.80;;;;;;;;;;5093509;28;20048;-35
2022/02/24 07:28:49;;;;;;;1.85;0.70;;;;;;;;;;5094077;28;20039;-37
2022/02/24 07:31:16;;;;;;;2.22;0.60;;;;;;;;;;5094783;28;20035;-36
2022/02/24 07:33:43;;;;;;;1.40;0.50;;;;;;;;;;5094439;28;20116;-38
2022/02/24 07:36:10;;;;;;;1.40;0.60;;;;;;;;;;5076397;28;20047;-33
2022/02/24 07:38:38;;;;;;;1.13;0.60;;;;;;;;;;5094133;28;20032;-33
2022/02/24 07:41:14;;;;;;;2.08;0.60;;;;;;;;;;5094632;28;20161;-36
2022/02/24 07:43:41;;;;;;;3.33;0.70;;;;;;;;;;5094184;28;20027;-37
2022/02/24 07:46:08;;;;;;;0.95;0.77;;;;;;;;;;5094308;28;20028;-37
2022/02/24 07:48:35;;;;;;;2.45;0.57;;;;;;;;;;5094009;28;20098;-35
2022/02/24 07:51:02;;;;;;;1.65;0.60;;;;;;;;;;5094484;28;20028;-35
2022/02/24 07:53:29;;;;;;;0.90;0.52;;;;;;;;;;5093744;28;20490;-36
2022/02/24 07:55:56;;;;;;;1.05;0.50;;;;;;;;;;5094187;28;20027;-38
2022/02/24 07:58:23;;;;;;;1.80;0.60;;;;;;;;;;5093783;28;20032;-36
2022/02/24 08:00:50;;;;;;;1.13;0.57;;;;;;;;;;5094307;28;20051;-37
2022/02/24 08:03:17;;;;;;;1.45;0.60;;;;;;;;;;5094105;28;20027;-36
2022/02/24 08:05:44;;;;;;;1.90;0.75;;;;;;;;;;5093508;28;20109;-35
2022/02/24 08:08:11;;;;;;;1.45;0.65;;;;;;;;;;5094079;28;20032;-34
2022/02/24 08:10:38;;;;;;;1.08;0.50;;;;;;;;;;5093503;28;20058;-34
2022/02/24 08:13:05;;;;;;;1.75;0.52;;;;;;;;;;5094113;28;20031;-36
2022/02/24 08:15:32;;;;;;;0.93;0.50;;;;;;;;;;5093202;28;20115;-35
2022/02/24 08:17:59;;;;;;;1.20;0.55;;;;;;;;;;5093858;28;20081;-35
2022/02/24 08:20:27;;;;;;;1.60;0.52;;;;;;;;;;5093480;28;20027;-38
2022/02/24 08:22:54;;;;;;;0.80;0.45;;;;;;;;;;5093869;28;20032;-37
2022/02/24 08:25:22;;;;;;;0.95;0.50;;;;;;;;;;5092996;28;20020;-37
2022/02/24 08:27:49;;;;;;;0.65;0.40;;;;;;;;;;5075255;28;20418;-38
2022/02/24 08:30:17;;;;;;;1.15;0.68;;;;;;;;;;5093453;28;20142;-34
2022/02/24 08:32:45;;;;;;;1.20;0.70;;;;;;;;;;5093721;28;20477;-38
2022/02/24 08:35:13;;;;;;;1.00;0.50;;;;;;;;;;5092784;28;20386;-36
2022/02/24 08:37:40;;;;;;;1.85;0.50;;;;;;;;;;5093268;28;20042;-36
2022/02/24 08:40:08;;;;;;;1.48;0.60;;;;;;;;;;5093337;28;20036;-34
2022/02/24 08:42:35;;;;;;;0.88;0.52;;;;;;;;;;5093354;28;20567;-34
2022/02/24 08:45:02;;;;;;;0.95;0.50;;;;;;;;;;5093484;28;20032;-38
2022/02/24 08:47:30;;;;;;;0.70;0.50;;;;;;;;;;5092629;28;20039;-36
2022/02/24 08:49:57;;;;;;;1.00;0.50;;;;;;;;;;5093342;28;20089;-37
2022/02/24 08:52:23;;;;;;;0.85;0.50;;;;;;;;;;5092861;28;20462;-36
2022/02/24 08:54:51;;;;;;;0.65;0.50;;;;;;;;;;5093229;28;20490;-36
2022/02/24 08:57:18;;;;;;;0.63;0.30;;;;;;;;;;5092359;28;20470;-35
2022/02/24 08:59:45;;;;;;;0.40;0.32;;;;;;;;;;5093112;28;20032;-35
2022/02/24 09:02:11;;;;;;;0.38;0.30;;;;;;;;;;5092627;28;20042;-38
2022/02/24 09:04:38;;;;;;;1.20;0.45;;;;;;;;;;5093215;28;20508;-36
2022/02/24 09:07:05;;;;;;;0.88;0.40;;;;;;;;;;5092271;28;20123;-36
2022/02/24 09:09:33;;;;;;;0.57;0.40;;;;;;;;;;5092756;28;20409;-36
2022/02/24 09:12:01;;;;;;;0.75;0.55;;;;;;;;;;5092419;28;20028;-35
2022/02/24 09:14:28;;;;;;;0.77;0.40;;;;;;;;;;5092831;28;20028;-35
2022/02/24 09:16:56;;;;;;;1.98;0.35;;;;;;;;;;5092422;28;20050;-35
2022/02/24 09:19:23;;;;;;;0.65;0.30;;;;;;;;;;5092213;28;20482;-35
2022/02/24 09:21:50;;;;;;;0.82;0.43;;;;;;;;;;5092696;28;20032;-35
2022/02/24 09:24:17;;;;;;;0.43;0.30;;;;;;;;;;5092235;28;20028;-34
2022/02/24 09:26:44;;;;;;;0.60;0.40;;;;;;;;;;5092382;28;20103;-36
2022/02/24 09:29:11;;;;;;;1.00;0.50;;;;;;;;;;5091883;28;20059;-34
2022/02/24 09:31:38;;;;;;;0.90;0.40;;;;;;;;;;5092367;28;20036;-35
2022/02/24 09:34:06;;;;;;;1.05;0.60;;;;;;;;;;5092040;28;20062;-36
2022/02/24 09:36:33;;;;;;;0.65;0.30;;;;;;;;;;5092225;28;20106;-37
2022/02/24 09:39:00;;;;;;;0.80;0.52;;;;;;;;;;5091918;28;20032;-35
2022/02/24 09:41:27;;;;;;;0.63;0.40;;;;;;;;;;5092366;28;20038;-36
2022/02/24 09:43:55;;;;;;;0.68;0.50;;;;;;;;;;5091933;28;20024;-36
2022/02/24 09:46:22;;;;;;;1.35;0.60;;;;;;;;;;5091920;28;20028;-35
2022/02/24 09:48:49;;;;;;;22.73;1.25;;;;;;;;;;5091264;28;20028;-40
2022/02/24 09:51:18;;;;;;;3.20;0.65;;;;;;;;;;5092170;28;20027;-43
2022/02/24 09:53:45;;;;;;;4.82;0.60;;;;;;;;;;5091687;28;20039;-41
2022/02/24 09:56:17;;;;;;;3.13;0.50;;;;;;;;;;5102383;27;20384;-48
2022/02/24 09:58:45;;;;;;;2.70;0.47;;;;;;;;;;5130842;27;20042;-47
2022/02/24 10:01:14;;;;;;;3.42;0.60;;;;;;;;;;5130927;27;20035;-46
2022/02/24 10:03:44;;;;;;;3.17;0.73;;;;;;;;;;5131932;27;20027;-35
2022/02/24 10:06:11;;;;;;;3.00;0.60;;;;;;;;;;5130082;27;20114;-41
2022/02/24 10:08:43;;;;;;;1.20;0.50;;;;;;;;;;5132127;27;20058;-43
2022/02/24 10:11:18;;;;;;;3.95;0.50;;;;;;;;;;5131757;27;20030;-46
2022/02/24 10:14:05;;;;;;;3.17;0.60;;;;;;;;;;5132458;27;20027;-36
2022/02/24 10:16:34;;;;;;;1.48;0.50;;;;;;;;;;5130314;27;20027;-46
2022/02/24 10:19:11;;;;;;;1.05;0.52;;;;;;;;;;5131921;27;20556;-39
2022/02/24 10:21:39;;;;;;;6.90;0.60;;;;;;;;;;5131614;28;20463;-46
2022/02/24 10:24:21;;;;;;;1.00;0.50;;;;;;;;;;5132256;28;20035;-46
2022/02/24 10:26:48;;;;;;;1.85;0.60;;;;;;;;;;5130618;28;20046;-38
2022/02/24 10:29:21;;;;;;;3.00;0.60;;;;;;;;;;5131108;28;20114;-43
2022/02/24 10:31:48;;;;;;;2.25;0.50;;;;;;;;;;5122789;28;20549;-45
2022/02/24 10:34:17;;;;;;;3.67;0.63;;;;;;;;;;5111596;28;20094;-43
2022/02/24 10:36:45;;;;;;;2.75;0.60;;;;;;;;;;5106704;28;20031;-45
2022/02/24 10:39:21;;;;;;;1.60;0.52;;;;;;;;;;5110305;28;20027;-41
2022/02/24 10:41:49;;;;;;;1.90;0.60;;;;;;;;;;5108334;28;20439;-43
2022/02/24 10:44:16;;;;;;;3.95;0.60;;;;;;;;;;5090769;28;20028;-36
2022/02/24 10:46:44;;;;;;;3.45;0.68;;;;;;;;;;5108250;28;20039;-43
2022/02/24 10:49:16;;;;;;;2.25;0.60;;;;;;;;;;5110393;28;20107;-45
2022/02/24 10:51:43;;;;;;;4.43;0.80;;;;;;;;;;5110905;28;20039;-43
2022/02/24 10:54:13;;;;;;;1.92;0.70;;;;;;;;;;5111326;28;20028;-45
2022/02/24 10:56:42;;;;;;;5.75;0.80;;;;;;;;;;5110336;28;20453;-46
2022/02/24 10:59:12;;;;;;;2.97;0.60;;;;;;;;;;5110241;28;20156;-45
2022/02/24 11:01:40;;;;;;;1.00;0.60;;;;;;;;;;5106363;28;20039;-38
2022/02/24 11:04:08;;;;;;;1.77;0.70;;;;;;;;;;5103748;28;20101;-38
2022/02/24 11:06:36;;;;;;;2.78;0.60;;;;;;;;;;5103046;28;20026;-38
2022/02/24 11:09:05;;;;;;;2.08;0.73;;;;;;;;;;5113172;28;20019;-37
2022/02/24 11:11:34;;;;;;;4.32;0.60;;;;;;;;;;5114054;28;20038;-35
2022/02/24 11:14:02;;;;;;;3.17;0.55;;;;;;;;;;5099953;28;20032;-35
2022/02/24 11:16:29;;;;;;;5.78;0.43;;;;;;;;;;5094084;28;20024;-37
2022/02/24 11:18:57;;;;;;;6.30;0.80;;;;;;;;;;5093737;28;20059;-37
2022/02/24 11:21:24;;;;;;;3.65;0.70;;;;;;;;;;5106917;28;20089;-36
2022/02/24 11:23:53;;;;;;;5.85;0.88;;;;;;;;;;5114438;28;20390;-38
2022/02/24 11:26:31;;;;;;;7.28;0.55;;;;;;;;;;5113838;28;20042;-38
2022/02/24 11:29:17;;;;;;;5.90;0.90;;;;;;;;;;5113798;28;20059;-36
2022/02/24 11:31:44;;;;;;;6.28;1.05;;;;;;;;;;5114213;28;20027;-38
2022/02/24 11:34:11;;;;;;;8.65;0.90;;;;;;;;;;5114438;28;20463;-35
2022/02/24 11:36:42;;;;;;;4.40;0.98;;;;;;;;;;5113976;28;20366;-36
2022/02/24 11:39:11;;;;;;;4.90;0.88;;;;;;;;;;5113187;28;20382;-36
2022/02/24 11:41:47;;;;;;;5.75;1.25;;;;;;;;;;5114024;28;20088;-36
2022/02/24 11:44:34;;;;;;;6.40;0.77;;;;;;;;;;5095804;28;20032;-34
2022/02/24 11:47:02;;;;;;;3.60;0.90;;;;;;;;;;5113821;28;20027;-33
2022/02/24 11:49:47;;;;;;;3.85;0.88;;;;;;;;;;5113563;28;20043;-35
2022/02/24 11:52:23;;;;;;;4.50;0.90;;;;;;;;;;5114587;28;20114;-34
2022/02/24 11:54:50;;;;;;;6.45;1.40;;;;;;;;;;5114187;28;20035;-35
2022/02/24 11:57:43;;;;;;;6.00;0.80;;;;;;;;;;5114636;28;20032;-33
2022/02/24 12:00:17;;;;;;;3.00;1.05;;;;;;;;;;5109615;28;20040;-33
2022/02/24 12:02:48;;;;;;;2.53;0.90;;;;;;;;;;5114405;28;20063;-35
2022/02/24 12:05:21;;;;;;;3.78;0.80;;;;;;;;;;5113912;28;20102;-34
2022/02/24 12:08:04;;;;;;;5.35;0.85;;;;;;;;;;5114254;28;20043;-33
2022/02/24 12:10:51;;;;;;;1.88;0.70;;;;;;;;;;5113605;28;20032;-33
2022/02/24 12:13:29;;;;;;;3.03;0.80;;;;;;;;;;5114165;28;20084;-34
2022/02/24 12:16:25;;;;;;;4.35;0.80;;;;;;;;;;5113674;28;20038;-33
2022/02/24 12:18:54;;;;;;;3.92;0.90;;;;;;;;;;5092768;28;20039;-33
2022/02/24 12:21:33;;;;;;;3.90;0.80;;;;;;;;;;5113460;28;20035;-33
2022/02/24 12:24:05;;;;;;;3.08;0.80;;;;;;;;;;5114114;28;20489;-33
2022/02/24 12:26:46;;;;;;;3.63;0.88;;;;;;;;;;5113491;28;20071;-35
2022/02/24 12:29:20;;;;;;;1.50;0.77;;;;;;;;;;5113381;28;20066;-35
2022/02/24 12:31:48;;;;;;;1.60;0.60;;;;;;;;;;5113509;28;20023;-35
2022/02/24 12:34:14;;;;;;;3.22;0.65;;;;;;;;;;5113964;28;20023;-34
2022/02/24 12:36:42;;;;;;;1.25;0.57;;;;;;;;;;5113308;28;20030;-33
2022/02/24 12:39:09;;;;;;;3.13;0.77;;;;;;;;;;5113654;28;20031;-34
2022/02/24 12:41:36;;;;;;;2.58;0.90;;;;;;;;;;5113167;28;20023;-34
2022/02/24 12:44:19;;;;;;;1.90;0.90;;;;;;;;;;5113642;28;20023;-34
2022/02/24 12:46:47;;;;;;;2.35;0.90;;;;;;;;;;5113402;28;20031;-33
2022/02/24 12:49:14;;;;;;;2.10;0.77;;;;;;;;;;5113315;28;20034;-35
2022/02/24 12:51:41;;;;;;;1.40;0.70;;;;;;;;;;5113485;28;20098;-34
2022/02/24 12:54:17;;;;;;;2.53;0.77;;;;;;;;;;5112570;28;20070;-34
2022/02/24 12:56:44;;;;;;;1.77;0.73;;;;;;;;;;5113302;28;20027;-35
2022/02/24 12:59:12;;;;;;;3.25;0.90;;;;;;;;;;5112916;28;20035;-32
2022/02/24 13:01:39;;;;;;;3.33;0.88;;;;;;;;;;5113121;28;20027;-34
2022/02/24 13:04:16;;;;;;;2.17;0.70;;;;;;;;;;5112909;28;20128;-33
2022/02/24 13:06:44;;;;;;;4.82;0.90;;;;;;;;;;5113194;28;20030;-35
2022/02/24 13:12:02;;;;;;;7.28;0.90;;;;;;;;;;5111131;27;20046;-37
2022/02/24 13:14:29;;;;;;;3.60;1.05;;;;;;;;;;5113438;27;20031;-37
2022/02/24 13:16:56;;;;;;;4.20;0.93;;;;;;;;;;5133306;27;20069;-38
2022/02/24 13:19:24;;;;;;;7.78;1.20;;;;;;;;;;5114048;27;20031;-39
2022/02/24 13:21:58;;;;;;;4.75;1.10;;;;;;;;;;5132286;27;20090;-36
2022/02/24 13:24:25;;;;;;;5.05;0.85;;;;;;;;;;5131089;27;20057;-35
2022/02/24 13:26:53;;;;;;;14.40;1.10;;;;;;;;;;5133062;27;20054;-37
2022/02/24 13:29:21;;;;;;;10.18;1.40;;;;;;;;;;5094764;27;20061;-45
2022/02/24 13:31:49;;;;;;;11.98;1.05;;;;;;;;;;5091752;28;20106;-43
2022/02/24 13:34:20;;;;;;;5.57;1.02;;;;;;;;;;5091397;28;20213;-37
2022/02/24 13:36:47;;;;;;;4.57;1.20;;;;;;;;;;5091436;28;20035;-42
2022/02/24 13:39:33;;;;;;;3.67;1.05;;;;;;;;;;5091722;28;20028;-43
2022/02/24 13:42:00;;;;;;;5.93;1.35;;;;;;;;;;5091813;28;20028;-40
2022/02/24 13:44:27;;;;;;;4.70;1.20;;;;;;;;;;5091647;28;20051;-43
2022/02/24 13:47:05;;;;;;;3.78;1.23;;;;;;;;;;5090496;28;20103;-41
2022/02/24 13:49:37;;;;;;;3.53;1.20;;;;;;;;;;5091597;28;20028;-45
2022/02/24 13:52:05;;;;;;;6.10;1.40;;;;;;;;;;5091125;28;20061;-35
2022/02/24 13:54:32;;;;;;;8.10;1.40;;;;;;;;;;5091649;28;20043;-39
2022/02/24 13:57:00;;;;;;;6.07;1.20;;;;;;;;;;5091174;28;20030;-40
2022/02/24 13:59:29;;;;;;;3.33;1.13;;;;;;;;;;5099723;28;20032;-40
2022/02/24 14:01:56;;;;;;;7.93;1.30;;;;;;;;;;5100655;28;20091;-40
2022/02/24 14:04:26;;;;;;;4.47;1.15;;;;;;;;;;5100196;28;20032;-40
2022/02/24 14:06:53;;;;;;;6.60;1.75;;;;;;;;;;5090395;28;20032;-38
2022/02/24 14:09:25;;;;;;;4.05;1.10;;;;;;;;;;5091358;28;20028;-38
2022/02/24 14:11:53;;;;;;;4.00;1.20;;;;;;;;;;5090730;28;20043;-45
2022/02/24 14:14:21;;;;;;;3.20;1.50;;;;;;;;;;5091459;28;20024;-45
2022/02/24 14:16:49;;;;;;;5.15;1.10;;;;;;;;;;5090874;28;20031;-44
2022/02/24 14:19:16;;;;;;;5.72;1.05;;;;;;;;;;5088412;28;20048;-44
2022/02/24 14:21:44;;;;;;;4.55;1.40;;;;;;;;;;5102427;28;20042;-44
2022/02/24 14:24:11;;;;;;;3.35;1.40;;;;;;;;;;5111521;28;20052;-45
2022/02/24 14:26:38;;;;;;;2.88;1.10;;;;;;;;;;5110743;28;20608;-45
2022/02/24 14:29:05;;;;;;;4.32;1.05;;;;;;;;;;5109844;28;20490;-43
2022/02/24 14:31:32;;;;;;;3.42;1.20;;;;;;;;;;5110767;28;20032;-41
2022/02/24 14:34:00;;;;;;;3.90;1.00;;;;;;;;;;5111478;28;20592;-43
2022/02/24 14:36:27;;;;;;;9.27;1.33;;;;;;;;;;5115065;28;20039;-44
2022/02/24 14:38:54;;;;;;;3.58;1.13;;;;;;;;;;5114240;28;20042;-45
2022/02/24 14:41:21;;;;;;;4.45;1.08;;;;;;;;;;5115285;28;20494;-43
2022/02/24 14:43:48;;;;;;;2.70;0.95;;;;;;;;;;5114659;28;20390;-43
2022/02/24 14:46:14;;;;;;;2.88;1.00;;;;;;;;;;5114720;28;20023;-44
2022/02/24 14:48:42;;;;;;;3.13;1.02;;;;;;;;;;5115119;28;20423;-46